الصفحة الرئيسية
METAR-TAF:

METAR-TAF

مطار :

Coral Harbour, نونافوت, كندا

دائرة عرض: 64-12N, خط طول: 083-22W, ارتفاع: 64 متر

مراقبة الطقس الحالي

تاريخ ووقت الإصدار 1ساعة و 0 دقيقة قبل الساعة 16:00UTC
ريح 12 عقدة من الشمال
درجة الحرارة 8°درجة مئوية
الرطوبة 61%
ضغط 1007 hPa
الرؤية: 24.1 كم
غيوم قليلة على ارتفاع 3000 قدم
غيوم متفرقة على ارتفاع 9000 قدم

METAR: CYZS 151600Z 35012KT 15SM FEW030 SCT090 08/01 A2975 RMK SC2AC1 SLP081

زمن: 13:00 (17:00 UTC)

توقعات

تاريخ ووقت الإصدار 4ساعات و 20 دقيقة قبل الساعة 12:40UTC
التوقعات صالحة من15 الساعة 13 UTC إلى 16 الساعة 01 UTC
ريح 10 عقدة من الشمال/الشمال الغربي
الرؤية: 10 كم
غيوم قليلة على ارتفاع 15000 قدم
أصبح
من 15 الساعة 22 UTC إلى 15 الساعة 24 UTC
ريح 15 عقدة من الشمال/الشمال الغربي

TAF: CYZS 151240Z 1513/1601 33010KT P6SM FEW150 BECMG 1522/1524 33015KT RMK NXT FCST BY 151900Z

أرصاد الطقس والتوقعات من أكثر من 4000 مطار (تقارير الطقس للمطار METAR والتنبؤ بالطقس بالمطارTAF).

المحطات المتاحة هي النقط الصفراء والحمراء على الخريطة.

حرك المؤشر فوق النقطة لمعرفة اسم المحطة.

ثم انقر لمعرفة أرصاد وتوقعات الطقس.

لتغيير الخارطة: اضغط على الأزرار الخضراء مع رمز الصليب الأسود للتكبير. على الزر الأخضر مع شرطة للتصغير، أو على الأسهم الخضراء للخرائط المجاورة.


METAR-TAF: